createdAt,value
2023-01-23T00:02:14.501Z,100.00
2023-01-23T00:05:03.040Z,100.00
2023-01-23T00:07:52.973Z,100.00
2023-01-23T00:10:41.458Z,100.00
2023-01-23T00:13:29.960Z,100.00
2023-01-23T00:16:20.766Z,100.00
2023-01-23T00:19:11.177Z,100.00
2023-01-23T00:22:00.465Z,100.00
2023-01-23T00:24:50.312Z,100.00
2023-01-23T00:27:38.865Z,100.00
2023-01-23T00:30:27.490Z,100.00
2023-01-23T00:33:15.918Z,100.00
2023-01-23T00:36:04.664Z,100.00
2023-01-23T00:38:53.139Z,100.00
2023-01-23T00:41:42.938Z,100.00
2023-01-23T00:44:31.501Z,100.00
2023-01-23T00:47:19.943Z,100.00
2023-01-23T00:50:09.171Z,100.00
2023-01-23T00:52:57.624Z,100.00
2023-01-23T00:55:46.233Z,100.00
2023-01-23T00:58:36.297Z,100.00
2023-01-23T01:01:25.993Z,100.00
2023-01-23T01:04:14.527Z,100.00
2023-01-23T01:07:02.986Z,100.00
2023-01-23T01:09:51.598Z,100.00
2023-01-23T01:12:40.405Z,100.00
2023-01-23T01:15:31.142Z,100.00
2023-01-23T01:18:20.302Z,100.00
2023-01-23T01:21:09.428Z,100.00
2023-01-23T01:23:57.942Z,100.00
2023-01-23T01:26:46.396Z,100.00
2023-01-23T01:29:34.985Z,100.00
2023-01-23T01:32:24.791Z,100.00
2023-01-23T01:35:13.258Z,100.00
2023-01-23T01:38:01.707Z,100.00
2023-01-23T01:40:50.325Z,100.00
2023-01-23T01:43:39.000Z,100.00
2023-01-23T01:46:28.250Z,100.00
2023-01-23T01:49:21.077Z,100.00
2023-01-23T01:52:11.995Z,100.00
2023-01-23T01:55:03.157Z,100.00
2023-01-23T01:57:54.231Z,100.00
2023-01-23T02:00:43.086Z,100.00
2023-01-23T02:03:31.697Z,100.00
2023-01-23T02:06:21.995Z,100.00
2023-01-23T02:09:15.765Z,100.00
2023-01-23T02:12:04.720Z,100.00
2023-01-23T02:14:53.221Z,100.00
2023-01-23T02:17:41.841Z,100.00
2023-01-23T02:20:30.689Z,100.00
2023-01-23T02:23:25.180Z,100.00
2023-01-23T02:26:17.574Z,100.00
2023-01-23T02:29:07.417Z,100.00
2023-01-23T02:31:56.725Z,100.00
2023-01-23T02:34:45.480Z,100.00
2023-01-23T02:37:35.502Z,100.00
2023-01-23T02:40:31.993Z,100.00
2023-01-23T02:43:23.784Z,100.00
2023-01-23T02:46:13.084Z,100.00
2023-01-23T02:49:02.477Z,100.00
2023-01-23T02:51:51.383Z,100.00
2023-01-23T02:54:40.740Z,100.00
2023-01-23T02:57:29.203Z,100.00
2023-01-23T03:00:20.690Z,100.00
2023-01-23T03:03:09.599Z,100.00
2023-01-23T03:06:01.514Z,100.00
2023-01-23T03:08:50.039Z,100.00
2023-01-23T03:11:40.313Z,100.00
2023-01-23T03:14:30.135Z,100.00
2023-01-23T03:17:20.125Z,100.00
2023-01-23T03:20:09.505Z,100.00
2023-01-23T03:22:58.033Z,100.00
2023-01-23T03:25:48.821Z,100.00
2023-01-23T03:28:54.673Z,100.00
2023-01-23T03:31:43.615Z,100.00
2023-01-23T03:34:33.808Z,100.00
2023-01-23T03:37:22.304Z,100.00
2023-01-23T03:40:39.524Z,100.00
2023-01-23T03:43:32.029Z,100.00
2023-01-23T03:46:20.702Z,100.00
2023-01-23T03:49:09.185Z,100.00
2023-01-23T03:51:59.202Z,100.00
2023-01-23T03:54:47.690Z,100.00
2023-01-23T03:57:36.191Z,100.00
2023-01-23T04:00:25.033Z,100.00
2023-01-23T04:03:13.566Z,100.00
2023-01-23T04:06:02.124Z,100.00
2023-01-23T04:08:51.996Z,100.00
2023-01-23T04:11:40.421Z,100.00
2023-01-23T04:14:30.446Z,100.00
2023-01-23T04:17:18.914Z,100.00
2023-01-23T04:20:08.043Z,100.00
2023-01-23T04:22:56.826Z,100.00
2023-01-23T04:25:46.713Z,100.00
2023-01-23T04:28:35.283Z,100.00
2023-01-23T04:31:23.879Z,100.00
2023-01-23T04:34:12.397Z,100.00
2023-01-23T04:37:00.813Z,100.00
2023-01-23T04:39:49.356Z,100.00
2023-01-23T04:42:41.118Z,100.00
2023-01-23T04:45:29.706Z,100.00
2023-01-23T04:48:18.192Z,100.00
2023-01-23T04:51:07.078Z,100.00
2023-01-23T04:53:55.598Z,100.00
2023-01-23T04:56:44.216Z,100.00
2023-01-23T04:59:34.014Z,100.00
2023-01-23T05:02:22.521Z,100.00
2023-01-23T05:05:11.045Z,100.00
2023-01-23T05:07:59.522Z,100.00
2023-01-23T05:10:48.021Z,100.00
2023-01-23T05:13:36.774Z,100.00
2023-01-23T05:16:26.628Z,100.00
2023-01-23T05:19:15.131Z,100.00
2023-01-23T05:22:03.579Z,100.00
2023-01-23T05:24:52.057Z,100.00
2023-01-23T05:27:40.540Z,100.00
2023-01-23T05:30:29.070Z,100.00
2023-01-23T05:33:18.965Z,100.00
2023-01-23T05:36:08.305Z,100.00
2023-01-23T05:38:56.888Z,100.00
2023-01-23T05:41:45.399Z,100.00
2023-01-23T05:44:34.094Z,100.00
2023-01-23T05:47:22.582Z,100.00
2023-01-23T05:50:15.765Z,100.00
2023-01-23T05:53:04.310Z,100.00
2023-01-23T05:55:52.782Z,100.00
2023-01-23T05:58:41.294Z,100.00
2023-01-23T06:01:29.727Z,100.00
2023-01-23T06:04:19.101Z,100.00
2023-01-23T06:07:14.482Z,100.00
2023-01-23T06:10:02.987Z,100.00
2023-01-23T06:12:51.467Z,100.00
2023-01-23T06:15:40.069Z,100.00
2023-01-23T06:18:28.661Z,100.00
2023-01-23T06:21:18.283Z,100.00
2023-01-23T06:24:08.770Z,100.00
2023-01-23T06:26:57.229Z,100.00
2023-01-23T06:29:45.747Z,100.00
2023-01-23T06:32:34.232Z,100.00
2023-01-23T06:35:23.305Z,100.00
2023-01-23T06:38:11.837Z,100.00
2023-01-23T06:41:01.829Z,100.00
2023-01-23T06:43:50.339Z,100.00
2023-01-23T06:46:38.942Z,100.00
2023-01-23T06:49:27.432Z,100.00
2023-01-23T06:52:15.933Z,100.00
2023-01-23T06:55:04.563Z,100.00
2023-01-23T06:57:54.331Z,100.00
2023-01-23T07:00:44.495Z,100.00
2023-01-23T07:03:32.982Z,100.00
2023-01-23T07:06:21.464Z,100.00
2023-01-23T07:09:10.681Z,100.00
2023-01-23T07:11:59.244Z,100.00
2023-01-23T07:14:49.035Z,100.00
2023-01-23T07:17:37.559Z,100.00
2023-01-23T07:20:27.411Z,100.00
2023-01-23T07:23:16.104Z,100.00
2023-01-23T07:26:09.387Z,100.00
2023-01-23T07:28:57.891Z,100.00
2023-01-23T07:31:47.806Z,100.00
2023-01-23T07:34:36.435Z,100.00
2023-01-23T07:37:25.913Z,100.00
2023-01-23T07:40:14.748Z,100.00
2023-01-23T07:43:03.160Z,100.00
2023-01-23T07:45:51.662Z,100.00
2023-01-23T07:48:41.520Z,100.00
2023-01-23T07:51:30.089Z,100.00
2023-01-23T07:54:18.718Z,100.00
2023-01-23T07:57:07.484Z,100.00
2023-01-23T07:59:55.969Z,100.00
2023-01-23T08:02:44.544Z,100.00
2023-01-23T08:05:34.330Z,100.00
2023-01-23T08:08:22.744Z,100.00
2023-01-23T08:11:11.940Z,100.00
2023-01-23T08:14:00.438Z,100.00
2023-01-23T08:16:50.503Z,100.00
2023-01-23T08:19:38.995Z,100.00
2023-01-23T08:22:29.003Z,100.00
2023-01-23T08:25:17.761Z,100.00
2023-01-23T08:28:06.370Z,100.00
2023-01-23T08:30:55.086Z,100.00
2023-01-23T08:33:43.613Z,100.00
2023-01-23T08:36:32.109Z,100.00
2023-01-23T08:39:21.962Z,100.00
2023-01-23T08:42:10.449Z,100.00
2023-01-23T08:44:58.911Z,100.00
2023-01-23T08:47:47.453Z,100.00
2023-01-23T08:50:36.315Z,100.00
2023-01-23T08:53:24.787Z,100.00
2023-01-23T08:56:18.069Z,100.00
2023-01-23T08:59:07.282Z,100.00
2023-01-23T09:01:56.659Z,100.00
2023-01-23T09:04:46.611Z,100.00
2023-01-23T09:07:38.220Z,100.00
2023-01-23T09:10:27.334Z,100.00
2023-01-23T09:13:19.622Z,100.00
2023-01-23T09:16:09.581Z,100.00
2023-01-23T09:18:58.426Z,100.00
2023-01-23T09:21:47.021Z,100.00
2023-01-23T09:24:35.791Z,100.00
2023-01-23T09:27:24.677Z,100.00
2023-01-23T09:30:15.625Z,100.00
2023-01-23T09:33:04.755Z,100.00
2023-01-23T09:35:53.512Z,100.00
2023-01-23T09:38:42.280Z,100.00
2023-01-23T09:41:31.688Z,100.00
2023-01-23T09:44:23.443Z,100.00
2023-01-23T09:47:16.389Z,100.00
2023-01-23T09:50:09.377Z,100.00
2023-01-23T09:53:01.400Z,100.00
2023-01-23T09:55:56.665Z,100.00
2023-01-23T09:58:51.459Z,100.00
2023-01-23T10:01:40.550Z,100.00
2023-01-23T10:04:32.588Z,100.00
2023-01-23T10:07:39.944Z,100.00
2023-01-23T10:10:53.737Z,100.00
2023-01-23T10:14:04.204Z,100.00
2023-01-23T10:17:04.476Z,100.00
2023-01-23T10:20:30.399Z,100.00
2023-01-23T10:23:41.876Z,100.00
2023-01-23T10:26:32.464Z,100.00
2023-01-23T10:29:28.555Z,100.00
2023-01-23T10:32:24.837Z,100.00
2023-01-23T10:35:18.543Z,98.90
2023-01-23T10:38:14.078Z,98.92
2023-01-23T10:41:14.908Z,97.54
2023-01-23T10:44:03.687Z,97.29
2023-01-23T10:46:55.950Z,94.86
2023-01-23T10:49:46.533Z,93.39
2023-01-23T10:52:38.762Z,92.52
2023-01-23T10:55:30.551Z,93.52
2023-01-23T10:58:29.898Z,93.11
2023-01-23T11:01:27.026Z,92.71
2023-01-23T11:04:21.112Z,91.13
2023-01-23T11:07:15.470Z,91.82
2023-01-23T11:10:18.835Z,90.92
2023-01-23T11:13:26.341Z,91.52
2023-01-23T11:16:15.874Z,92.55
2023-01-23T11:19:12.117Z,91.59
2023-01-23T11:22:02.218Z,91.25
2023-01-23T11:24:50.680Z,91.82
2023-01-23T11:27:40.528Z,90.69
2023-01-23T11:30:42.930Z,90.56
2023-01-23T11:33:39.893Z,89.73
2023-01-23T11:36:36.354Z,90.26
2023-01-23T11:39:42.378Z,88.84
2023-01-23T11:42:30.858Z,89.51
2023-01-23T11:45:34.076Z,88.67
2023-01-23T11:48:40.713Z,88.34
2023-01-23T11:51:34.080Z,88.46
2023-01-23T11:54:38.679Z,87.92
2023-01-23T11:57:36.277Z,86.83
2023-01-23T12:00:34.146Z,87.05
2023-01-23T12:03:48.904Z,87.02
2023-01-23T12:06:49.848Z,87.65
2023-01-23T12:09:47.212Z,87.82
2023-01-23T12:13:00.634Z,88.20
2023-01-23T12:15:59.778Z,85.91
2023-01-23T12:18:58.892Z,86.18
2023-01-23T12:21:52.758Z,86.96
2023-01-23T12:24:50.230Z,86.54
2023-01-23T12:27:43.774Z,86.97
2023-01-23T12:30:54.268Z,87.86
2023-01-23T12:34:10.250Z,86.52
2023-01-23T12:37:19.464Z,87.44
2023-01-23T12:40:15.749Z,87.19
2023-01-23T12:43:09.489Z,87.60
2023-01-23T12:46:05.721Z,88.48
2023-01-23T12:48:58.454Z,87.85
2023-01-23T12:51:48.968Z,87.51
2023-01-23T12:54:42.064Z,87.85
2023-01-23T12:57:52.794Z,88.06
2023-01-23T13:00:56.101Z,88.87
2023-01-23T13:04:05.567Z,88.14
2023-01-23T13:07:10.113Z,87.33
2023-01-23T13:10:19.949Z,87.09
2023-01-23T13:13:08.720Z,88.94
2023-01-23T13:16:09.530Z,88.43
2023-01-23T13:19:16.834Z,88.82
2023-01-23T13:22:22.433Z,88.69
2023-01-23T13:25:18.067Z,88.87
2023-01-23T13:28:32.473Z,88.22
2023-01-23T13:31:34.815Z,89.29
2023-01-23T13:34:38.047Z,88.16
2023-01-23T13:37:51.120Z,88.81
2023-01-23T13:40:59.733Z,88.12
2023-01-23T13:43:53.736Z,88.60
2023-01-23T14:23:19.389Z,88.28
2023-01-23T14:26:11.908Z,88.51
2023-01-23T14:29:02.369Z,89.28
2023-01-23T14:31:52.048Z,89.72
2023-01-23T14:34:40.982Z,88.07
2023-01-23T14:37:30.133Z,88.76
2023-01-23T14:40:27.215Z,87.43
2023-01-23T14:43:21.249Z,87.24
2023-01-23T14:46:31.135Z,88.39
2023-01-23T14:49:25.019Z,87.93
2023-01-23T14:52:22.776Z,88.37
2023-01-23T14:55:29.238Z,88.57
2023-01-23T14:58:23.914Z,88.54
2023-01-23T15:01:12.520Z,88.61
2023-01-23T15:04:03.265Z,88.83
2023-01-23T15:06:52.737Z,88.75
2023-01-23T15:09:41.716Z,89.07
2023-01-23T15:12:30.557Z,89.71
2023-01-23T15:15:22.995Z,90.05
2023-01-23T15:18:22.090Z,90.62
2023-01-23T15:21:10.629Z,91.25
2023-01-23T15:24:02.030Z,90.31
2023-01-23T15:27:03.584Z,90.40
2023-01-23T15:29:52.362Z,91.66
2023-01-23T15:32:42.295Z,90.82
2023-01-23T15:35:30.862Z,90.68
2023-01-23T15:38:19.351Z,91.41
2023-01-23T15:41:11.222Z,91.11
2023-01-23T15:43:59.727Z,91.17
2023-01-23T15:46:48.280Z,92.10
2023-01-23T15:49:40.008Z,92.13
2023-01-23T15:52:29.674Z,92.52
2023-01-23T15:55:19.572Z,92.59
2023-01-23T15:58:08.068Z,91.41
2023-01-23T16:00:56.662Z,91.67
2023-01-23T16:03:45.205Z,91.61
2023-01-23T16:06:35.268Z,91.53
2023-01-23T16:09:27.980Z,92.15
2023-01-23T16:12:18.578Z,92.58
2023-01-23T16:15:15.974Z,91.50
2023-01-23T16:18:05.239Z,92.23
2023-01-23T16:20:54.242Z,91.78
2023-01-23T16:23:47.470Z,91.86
2023-01-23T16:26:36.493Z,92.15
2023-01-23T16:29:27.193Z,92.16
2023-01-23T16:32:15.965Z,92.62
2023-01-23T16:35:04.633Z,91.56
2023-01-23T16:37:54.531Z,92.76
2023-01-23T16:40:44.445Z,93.05
2023-01-23T16:43:33.467Z,92.39
2023-01-23T16:46:22.090Z,91.50
2023-01-23T16:49:10.616Z,91.34
2023-01-23T16:52:00.259Z,91.50
2023-01-23T16:54:48.794Z,91.65
2023-01-23T16:57:38.779Z,90.33
2023-01-23T17:00:34.647Z,90.47
2023-01-23T17:03:25.847Z,91.23
2023-01-23T17:06:15.693Z,90.91
2023-01-23T17:09:04.538Z,90.18
2023-01-23T17:11:55.446Z,90.68
2023-01-23T17:14:46.476Z,90.62
2023-01-23T17:17:36.398Z,89.81
2023-01-23T17:20:25.155Z,90.42
2023-01-23T17:23:14.615Z,89.73
2023-01-23T17:26:03.653Z,90.24
2023-01-23T17:28:52.564Z,89.95
2023-01-23T17:31:43.392Z,90.33
2023-01-23T17:34:41.533Z,91.40
2023-01-23T17:37:37.321Z,91.48
2023-01-23T17:40:26.329Z,90.92
2023-01-23T17:43:15.310Z,89.85
2023-01-23T17:46:05.554Z,90.56
2023-01-23T17:48:56.407Z,90.69
2023-01-23T17:51:44.983Z,89.84
2023-01-23T17:54:33.651Z,90.38
2023-01-23T17:57:22.431Z,90.17
2023-01-23T18:00:13.454Z,90.32
2023-01-23T18:03:03.226Z,90.63
2023-01-23T18:05:53.464Z,89.66
2023-01-23T18:08:42.366Z,89.91
2023-01-23T18:11:31.723Z,89.65
2023-01-23T18:14:38.583Z,90.26
2023-01-23T18:17:32.915Z,91.17
2023-01-23T18:20:24.527Z,90.72
2023-01-23T18:23:16.052Z,90.52
2023-01-23T18:26:18.556Z,89.94
2023-01-23T18:29:21.049Z,90.97
2023-01-23T18:32:41.226Z,89.52
2023-01-23T18:35:40.960Z,89.79
2023-01-23T18:38:36.113Z,91.08
2023-01-23T18:41:26.111Z,90.08
2023-01-23T18:44:19.465Z,90.15
2023-01-23T18:47:12.106Z,89.61
2023-01-23T18:50:01.093Z,89.87
2023-01-23T18:53:00.447Z,90.61
2023-01-23T18:56:09.352Z,89.83
2023-01-23T18:59:11.480Z,90.28
2023-01-23T19:02:04.740Z,90.22
2023-01-23T19:05:20.741Z,90.03
2023-01-23T19:08:23.031Z,90.80
2023-01-23T19:11:21.735Z,91.02
2023-01-23T19:14:17.812Z,90.55
2023-01-23T19:17:14.871Z,90.89
2023-01-23T19:20:07.135Z,91.06
2023-01-23T19:23:12.668Z,91.34
2023-01-23T19:26:01.691Z,91.68
2023-01-23T19:28:52.607Z,91.07
2023-01-23T19:31:47.469Z,91.57
2023-01-23T19:34:44.463Z,91.79
2023-01-23T19:37:33.260Z,91.79
2023-01-23T19:40:22.165Z,91.31
2023-01-23T19:43:15.303Z,91.91
2023-01-23T19:46:05.893Z,91.27
2023-01-23T19:48:55.572Z,92.11
2023-01-23T19:51:44.799Z,91.77
2023-01-23T19:54:33.607Z,92.50
2023-01-23T19:57:22.131Z,92.36
2023-01-23T20:00:15.005Z,93.11
2023-01-23T20:03:05.441Z,92.95
2023-01-23T20:05:55.936Z,92.09
2023-01-23T20:08:44.715Z,93.34
2023-01-23T20:11:33.445Z,93.83
2023-01-23T20:14:23.588Z,93.48
2023-01-23T20:17:12.057Z,92.34
2023-01-23T20:20:02.409Z,91.84
2023-01-23T20:22:51.195Z,91.97
2023-01-23T20:25:39.815Z,92.17
2023-01-23T20:28:28.512Z,92.21
2023-01-23T20:31:17.504Z,92.28
2023-01-23T20:34:07.145Z,93.05
2023-01-23T20:36:57.045Z,93.10
2023-01-23T20:39:45.606Z,93.83
2023-01-23T20:42:34.851Z,93.71
2023-01-23T20:45:24.309Z,93.59
2023-01-23T20:48:12.767Z,92.94
2023-01-23T20:51:01.395Z,92.67
2023-01-23T20:53:51.255Z,92.86
2023-01-23T20:56:39.779Z,92.81
2023-01-23T20:59:27.367Z,93.03
2023-01-23T21:02:25.519Z,92.52
2023-01-23T21:05:14.017Z,92.80
2023-01-23T21:08:02.700Z,92.69
2023-01-23T21:10:53.106Z,92.87
2023-01-23T21:13:41.828Z,92.39
2023-01-23T21:16:30.987Z,92.42
2023-01-23T21:19:20.413Z,93.06
2023-01-23T21:22:08.948Z,93.20
2023-01-23T21:24:57.468Z,93.07
2023-01-23T21:27:47.325Z,93.26
2023-01-23T21:30:36.341Z,92.94
2023-01-23T21:33:26.335Z,93.98
2023-01-23T21:36:16.711Z,93.65
2023-01-23T21:39:05.562Z,93.58
2023-01-23T21:41:54.078Z,93.72
2023-01-23T21:44:43.965Z,93.65
2023-01-23T21:47:32.490Z,93.79
2023-01-23T21:50:21.026Z,93.63
2023-01-23T21:53:09.522Z,92.94
2023-01-23T21:55:58.055Z,92.61
2023-01-23T21:58:47.225Z,92.83
2023-01-23T22:01:41.989Z,94.02
2023-01-23T22:04:30.668Z,93.38
2023-01-23T22:07:19.173Z,94.49
2023-01-23T22:10:09.083Z,94.19
2023-01-23T22:12:57.915Z,94.80
2023-01-23T22:15:46.455Z,94.63
2023-01-23T22:18:36.343Z,95.12
2023-01-23T22:21:24.978Z,94.63
2023-01-23T22:24:13.570Z,94.90
2023-01-23T22:27:03.956Z,94.85
2023-01-23T22:29:52.431Z,95.46
2023-01-23T22:32:40.883Z,94.62
2023-01-23T22:35:30.740Z,95.35
2023-01-23T22:38:19.185Z,94.37
2023-01-23T22:41:08.409Z,95.40
2023-01-23T22:43:59.141Z,95.21
2023-01-23T22:46:47.840Z,95.63
2023-01-23T22:49:36.331Z,95.60
2023-01-23T22:52:26.299Z,95.56
2023-01-23T22:55:15.967Z,95.73
2023-01-23T22:58:04.442Z,94.88
2023-01-23T23:00:53.441Z,95.21
2023-01-23T23:03:42.330Z,96.12
2023-01-23T23:06:30.950Z,96.03
2023-01-23T23:09:20.816Z,96.52
2023-01-23T23:12:09.289Z,96.52
2023-01-23T23:14:57.770Z,95.35
2023-01-23T23:17:46.279Z,96.58
2023-01-23T23:20:35.221Z,96.10
2023-01-23T23:23:23.696Z,95.25
2023-01-23T23:26:14.526Z,96.03
2023-01-23T23:29:03.417Z,95.55
2023-01-23T23:31:52.144Z,95.44
2023-01-23T23:34:40.739Z,95.88
2023-01-23T23:37:29.254Z,95.44
2023-01-23T23:40:18.353Z,94.99
2023-01-23T23:43:08.294Z,96.32
2023-01-23T23:45:58.388Z,96.56
2023-01-23T23:48:48.084Z,95.81
2023-01-23T23:51:36.743Z,96.34
2023-01-23T23:54:25.224Z,96.27
2023-01-23T23:57:13.704Z,96.02
